Time;durP1;ratioP1;P1;durP2;ratioP2;P2;SDS_P1;SDS_P2;PMS_P1;PMS_P2;Temp;Humidity;BMP_temperature;BMP_pressure;BME280_temperature;BME280_humidity;BME280_pressure;Samples;Min_cycle;Max_cycle;Signal;HPM_P1;HPM_P2
2023/12/11 00:00:16;;;;;;;25.77;6.22;;;12.00;73.30;;;;;;4998145;28;20022;-75
2023/12/11 00:02:42;;;;;;;27.80;6.13;;;12.00;73.30;;;;;;4980617;28;20037;-76
2023/12/11 00:05:08;;;;;;;25.20;6.80;;;12.00;73.30;;;;;;4981626;28;20038;-75
2023/12/11 00:07:34;;;;;;;27.88;7.15;;;12.00;73.30;;;;;;4960442;28;20027;-76
2023/12/11 00:10:00;;;;;;;23.70;6.00;;;12.00;73.30;;;;;;5001109;28;20041;-78
2023/12/11 00:12:26;;;;;;;26.85;6.05;;;12.00;73.30;;;;;;4983562;28;20531;-76
2023/12/11 00:14:52;;;;;;;31.05;6.65;;;12.00;73.80;;;;;;4999539;28;20087;-74
2023/12/11 00:17:19;;;;;;;25.13;5.20;;;12.00;73.30;;;;;;4984051;28;20317;-76
2023/12/11 00:19:45;;;;;;;30.42;6.55;;;12.00;73.30;;;;;;5001379;28;20034;-76
2023/12/11 00:22:11;;;;;;;21.30;6.38;;;12.00;73.30;;;;;;5001712;28;20585;-76
2023/12/11 00:24:37;;;;;;;33.63;6.00;;;12.00;73.30;;;;;;5002959;28;20041;-76
2023/12/11 00:27:03;;;;;;;22.58;5.32;;;12.00;73.30;;;;;;5002007;28;20116;-75
2023/12/11 00:29:29;;;;;;;24.40;5.35;;;12.00;73.40;;;;;;5001261;28;20042;-75
2023/12/11 00:31:55;;;;;;;28.15;6.53;;;12.00;73.40;;;;;;5002526;28;20022;-78
2023/12/11 00:34:21;;;;;;;27.58;6.32;;;12.00;73.40;;;;;;4982548;28;20450;-75
2023/12/11 00:36:47;;;;;;;24.20;6.03;;;12.00;73.40;;;;;;5002225;28;20065;-78
2023/12/11 00:39:16;;;;;;;29.50;6.03;;;12.00;73.40;;;;;;4982699;28;20085;-75
2023/12/11 00:41:43;;;;;;;22.17;5.28;;;12.00;73.40;;;;;;5000603;28;20128;-77
2023/12/11 00:44:12;;;;;;;21.77;6.30;;;12.00;73.40;;;;;;4998661;28;20400;-78
2023/12/11 00:46:38;;;;;;;19.70;6.53;;;12.00;73.50;;;;;;5001550;28;20457;-76
2023/12/11 00:49:04;;;;;;;21.92;5.40;;;12.00;73.50;;;;;;4983910;28;20060;-75
2023/12/11 00:51:31;;;;;;;25.88;4.97;;;12.00;73.50;;;;;;4999054;28;20450;-77
2023/12/11 00:53:57;;;;;;;27.45;5.90;;;12.00;73.50;;;;;;5000383;28;20030;-78
2023/12/11 00:56:23;;;;;;;24.55;5.10;;;12.00;73.50;;;;;;5001227;28;20157;-77
2023/12/11 00:58:49;;;;;;;23.83;5.18;;;12.00;73.50;;;;;;5000830;28;20057;-78
2023/12/11 01:01:15;;;;;;;22.05;6.65;;;12.00;73.50;;;;;;5007486;28;20040;-77
2023/12/11 01:03:41;;;;;;;21.15;5.60;;;12.00;73.50;;;;;;4983259;28;20482;-76
2023/12/11 01:06:07;;;;;;;30.67;7.10;;;12.00;73.50;;;;;;4993386;28;20090;-75
2023/12/11 01:08:38;;;;;;;21.00;6.10;;;12.00;73.50;;;;;;4998389;28;20445;-76
2023/12/11 01:11:05;;;;;;;27.25;5.70;;;12.00;73.50;;;;;;4999515;28;20117;-77
2023/12/11 01:13:32;;;;;;;23.05;6.93;;;12.00;73.60;;;;;;4981822;28;20510;-77
2023/12/11 01:15:58;;;;;;;26.25;4.95;;;11.90;73.40;;;;;;4997712;28;20489;-77
2023/12/11 01:18:26;;;;;;;20.92;5.15;;;11.90;73.40;;;;;;5000247;28;20436;-78
2023/12/11 01:20:52;;;;;;;22.17;4.88;;;11.90;73.40;;;;;;4964259;28;20034;-78
2023/12/11 01:23:18;;;;;;;19.25;6.13;;;11.90;73.40;;;;;;4998624;28;20088;-75
2023/12/11 01:25:44;;;;;;;29.15;7.03;;;11.90;73.40;;;;;;4999053;28;20033;-77
2023/12/11 01:28:11;;;;;;;20.65;4.90;;;11.90;73.50;;;;;;5000749;28;20488;-75
2023/12/11 01:30:38;;;;;;;17.67;5.00;;;11.90;73.50;;;;;;4999208;28;20037;-77
2023/12/11 01:33:05;;;;;;;18.90;4.70;;;11.90;73.50;;;;;;4984079;28;20417;-76
2023/12/11 01:35:33;;;;;;;13.93;4.03;;;11.80;73.40;;;;;;4999991;28;20510;-75
2023/12/11 01:38:00;;;;;;;22.17;4.72;;;11.80;73.40;;;;;;4999551;28;20490;-76
2023/12/11 01:40:26;;;;;;;24.17;5.55;;;11.80;73.50;;;;;;5000168;28;20088;-75
2023/12/11 01:42:52;;;;;;;19.33;5.43;;;11.80;73.50;;;;;;4981350;28;20091;-77
2023/12/11 01:45:18;;;;;;;13.00;4.13;;;11.80;73.50;;;;;;4964545;28;20441;-76
2023/12/11 01:47:44;;;;;;;22.85;5.40;;;11.80;73.50;;;;;;4979814;28;20040;-77
2023/12/11 01:50:10;;;;;;;20.27;4.47;;;11.80;73.50;;;;;;4996981;28;20113;-75
2023/12/11 01:52:37;;;;;;;20.75;4.90;;;11.80;73.50;;;;;;4999115;28;20038;-75
2023/12/11 01:55:05;;;;;;;21.52;4.32;;;11.90;73.70;;;;;;4998875;28;20343;-75
2023/12/11 01:57:31;;;;;;;15.88;4.90;;;11.80;73.50;;;;;;4980358;28;20041;-76
2023/12/11 01:59:58;;;;;;;18.92;4.93;;;11.90;73.70;;;;;;4999166;28;20425;-76
2023/12/11 02:02:24;;;;;;;22.48;5.35;;;11.90;73.70;;;;;;4999810;28;20108;-77
2023/12/11 02:04:53;;;;;;;23.70;5.45;;;11.90;73.70;;;;;;4999637;28;20387;-76
2023/12/11 02:07:19;;;;;;;25.50;4.97;;;11.90;73.70;;;;;;4978798;28;20378;-75
2023/12/11 02:09:45;;;;;;;19.15;4.30;;;11.90;73.70;;;;;;4966229;28;20176;-75
2023/12/11 02:12:11;;;;;;;22.70;5.43;;;11.90;73.70;;;;;;4981445;28;20498;-75
2023/12/11 02:14:37;;;;;;;24.65;5.28;;;11.90;73.70;;;;;;5001518;28;20494;-75
2023/12/11 02:17:03;;;;;;;20.65;4.65;;;11.90;73.70;;;;;;4974327;28;20061;-74
2023/12/11 02:19:30;;;;;;;17.48;4.72;;;11.90;73.70;;;;;;4979260;28;20033;-78
2023/12/11 02:21:56;;;;;;;23.10;5.07;;;11.90;73.70;;;;;;4981353;28;20033;-76
2023/12/11 02:24:28;;;;;;;28.45;5.05;;;11.90;73.70;;;;;;4976284;28;20057;-74
2023/12/11 02:26:54;;;;;;;19.10;4.15;;;11.90;73.70;;;;;;4997680;28;20038;-74
2023/12/11 02:29:20;;;;;;;21.58;5.43;;;11.90;73.70;;;;;;4997686;28;20145;-75
2023/12/11 02:31:46;;;;;;;24.67;5.30;;;11.90;73.70;;;;;;5000650;28;20160;-75
2023/12/11 02:34:12;;;;;;;23.10;5.03;;;12.00;73.90;;;;;;5001596;28;20466;-75
2023/12/11 02:36:39;;;;;;;24.58;5.10;;;12.00;73.90;;;;;;4999476;28;20018;-75
2023/12/11 02:39:06;;;;;;;21.55;4.95;;;11.90;73.70;;;;;;4984066;28;20148;-75
2023/12/11 02:41:32;;;;;;;18.48;4.88;;;12.00;74.00;;;;;;4983263;28;20196;-74
2023/12/11 02:43:59;;;;;;;16.10;4.80;;;11.90;73.80;;;;;;5000491;28;20516;-75
2023/12/11 02:46:26;;;;;;;20.15;4.47;;;12.00;73.90;;;;;;5022721;23;20049;-89
2023/12/11 02:48:52;;;;;;;20.13;4.57;;;12.00;73.90;;;;;;5032087;28;20033;-89
2023/12/11 02:51:19;;;;;;;24.77;6.07;;;12.00;73.90;;;;;;5033498;28;20068;-89
2023/12/11 02:53:46;;;;;;;22.88;4.60;;;11.90;73.70;;;;;;5032450;28;20026;-90
2023/12/11 02:56:15;;;;;;;21.90;4.90;;;12.00;73.90;;;;;;5017234;28;20045;-90
2023/12/11 02:58:43;;;;;;;17.00;5.13;;;12.00;73.90;;;;;;5032426;28;20071;-89
2023/12/11 03:01:09;;;;;;;17.10;4.97;;;12.00;74.00;;;;;;5031944;28;20032;-88
2023/12/11 03:03:36;;;;;;;13.05;3.63;;;12.00;73.90;;;;;;5032573;28;20037;-90
2023/12/11 03:06:19;;;;;;;22.67;5.07;;;12.00;73.90;;;;;;5032151;28;20025;-91
2023/12/11 03:08:47;;;;;;;14.05;4.55;;;12.00;73.90;;;;;;5034074;28;20057;-90
2023/12/11 03:11:13;;;;;;;19.30;5.72;;;12.00;73.90;;;;;;5033920;28;20627;-90
2023/12/11 03:13:40;;;;;;;13.20;3.63;;;12.00;73.90;;;;;;5012413;28;20407;-91
2023/12/11 03:16:11;;;;;;;19.85;5.22;;;12.00;73.90;;;;;;5030190;28;20159;-92
2023/12/11 03:18:41;;;;;;;16.10;3.58;;;11.90;73.70;;;;;;5013103;28;20518;-92
2023/12/11 03:21:09;;;;;;;20.70;4.15;;;12.00;73.90;;;;;;5029861;28;20060;-90
2023/12/11 03:23:37;;;;;;;11.27;3.40;;;12.00;73.90;;;;;;5011033;28;20407;-90
2023/12/11 03:26:03;;;;;;;15.43;3.53;;;12.00;73.90;;;;;;5010118;28;20097;-91
2023/12/11 03:28:29;;;;;;;13.38;4.15;;;12.00;73.90;;;;;;5006107;28;20470;-90
2023/12/11 03:30:55;;;;;;;15.63;2.92;;;11.90;73.60;;;;;;5030162;28;20041;-91
2023/12/11 03:33:21;;;;;;;14.65;3.70;;;12.00;73.80;;;;;;5029747;28;20110;-91
2023/12/11 03:35:47;;;;;;;13.20;2.38;;;12.00;73.80;;;;;;5050127;28;20017;-91
2023/12/11 03:38:14;;;;;;;15.45;3.38;;;12.00;73.70;;;;;;5051316;28;20036;-90
2023/12/11 03:40:39;;;;;;;12.93;4.40;;;11.90;73.50;;;;;;5048980;28;20033;-92
2023/12/11 03:43:06;;;;;;;15.13;4.38;;;11.90;73.50;;;;;;5038391;28;20055;-90
2023/12/11 03:45:35;;;;;;;13.20;3.20;;;11.90;73.50;;;;;;5032989;28;20038;-94
2023/12/11 03:48:01;;;;;;;14.23;3.42;;;11.90;73.50;;;;;;5016662;28;20481;-91
2023/12/11 03:50:27;;;;;;;11.70;2.58;;;11.90;73.50;;;;;;5010676;28;20040;-91
2023/12/11 03:52:53;;;;;;;10.32;3.25;;;11.90;73.50;;;;;;5010870;28;20022;-90
2023/12/11 03:55:20;;;;;;;13.15;3.70;;;11.90;73.50;;;;;;5013837;28;20030;-90
2023/12/11 03:57:47;;;;;;;10.68;2.67;;;11.90;73.50;;;;;;5011105;28;20547;-90
2023/12/11 04:00:14;;;;;;;9.95;3.00;;;11.90;73.50;;;;;;5011216;28;20033;-95
2023/12/11 04:02:44;;;;;;;8.32;2.13;;;11.90;73.40;;;;;;5012095;28;20279;-93
2023/12/11 04:05:12;;;;;;;13.07;2.53;;;11.90;73.40;;;;;;4999510;28;20042;-92
2023/12/11 04:07:38;;;;;;;12.45;2.85;;;11.90;73.40;;;;;;5007440;28;20100;-94
2023/12/11 04:10:06;;;;;;;9.32;2.92;;;11.90;73.40;;;;;;4994505;28;20443;-92
2023/12/11 04:12:33;;;;;;;7.05;1.70;;;11.90;73.40;;;;;;4993373;28;20034;-93
2023/12/11 04:14:59;;;;;;;7.97;2.25;;;11.90;73.30;;;;;;5008436;28;20033;-92
2023/12/11 04:17:25;;;;;;;9.32;2.05;;;11.80;73.10;;;;;;5013477;28;20030;-92
2023/12/11 04:19:51;;;;;;;10.02;2.28;;;11.80;73.10;;;;;;5012911;28;20033;-91
2023/12/11 04:22:19;;;;;;;9.93;2.47;;;11.80;73.10;;;;;;5006337;28;20026;-92
2023/12/11 04:24:45;;;;;;;8.60;2.35;;;11.80;73.10;;;;;;5006633;28;20092;-92
2023/12/11 04:27:11;;;;;;;10.63;2.42;;;11.80;73.30;;;;;;5011233;28;20467;-91
2023/12/11 04:29:37;;;;;;;12.98;2.17;;;11.80;73.10;;;;;;4991261;28;20037;-92
2023/12/11 04:32:05;;;;;;;9.82;2.38;;;11.80;73.10;;;;;;5012999;28;20022;-92
2023/12/11 04:34:40;;;;;;;8.93;2.22;;;11.80;73.10;;;;;;5012714;28;20506;-90
2023/12/11 04:37:06;;;;;;;6.85;2.15;;;11.80;73.10;;;;;;5008503;28;20023;-90
2023/12/11 04:39:32;;;;;;;8.48;1.65;;;11.80;73.00;;;;;;5006222;28;20025;-90
2023/12/11 04:41:58;;;;;;;6.28;2.25;;;11.80;73.00;;;;;;5008646;28;20026;-91
2023/12/11 04:44:23;;;;;;;7.43;1.58;;;11.80;73.00;;;;;;5013091;28;20046;-91
2023/12/11 04:46:54;;;;;;;5.28;1.73;;;11.80;72.90;;;;;;4987182;28;20117;-92
2023/12/11 04:49:24;;;;;;;6.43;2.25;;;11.80;72.90;;;;;;5017580;28;20025;-91
2023/12/11 04:51:50;;;;;;;9.38;2.28;;;11.80;72.80;;;;;;5018740;28;20082;-92
2023/12/11 04:54:16;;;;;;;9.10;2.97;;;11.80;72.80;;;;;;5006789;28;20065;-92
2023/12/11 04:56:42;;;;;;;8.32;2.10;;;11.80;72.80;;;;;;5012268;28;20087;-91
2023/12/11 04:59:09;;;;;;;9.00;2.28;;;11.80;72.80;;;;;;5009623;28;20053;-85
2023/12/11 05:01:35;;;;;;;6.35;2.25;;;11.80;72.70;;;;;;5005616;28;20025;-86
2023/12/11 05:04:01;;;;;;;7.93;1.50;;;11.80;72.70;;;;;;5012565;28;20049;-85
2023/12/11 05:06:28;;;;;;;7.55;2.30;;;11.80;72.70;;;;;;5008112;28;20022;-88
2023/12/11 05:08:59;;;;;;;6.57;2.00;;;11.70;72.50;;;;;;5011982;28;20156;-85
2023/12/11 05:11:25;;;;;;;10.30;2.00;;;11.80;72.70;;;;;;4997900;28;20064;-87
2023/12/11 05:13:51;;;;;;;6.95;2.08;;;11.80;72.70;;;;;;5013045;28;20466;-85
2023/12/11 05:16:17;;;;;;;10.63;2.28;;;11.80;72.70;;;;;;5010818;28;20041;-87
2023/12/11 05:18:44;;;;;;;6.80;1.63;;;11.80;72.60;;;;;;5003859;28;20367;-88
2023/12/11 05:21:10;;;;;;;5.50;1.40;;;11.70;72.50;;;;;;5011873;28;20033;-86
2023/12/11 05:23:37;;;;;;;5.25;1.40;;;11.70;72.50;;;;;;5018171;28;20499;-90
2023/12/11 05:26:06;;;;;;;6.82;1.75;;;11.70;72.50;;;;;;5008391;28;20042;-90
2023/12/11 05:28:36;;;;;;;6.90;1.60;;;11.70;72.50;;;;;;5012916;28;20472;-91
2023/12/11 05:31:03;;;;;;;7.38;1.70;;;11.70;72.50;;;;;;5007964;28;20053;-91
2023/12/11 05:33:30;;;;;;;7.03;1.20;;;11.70;72.50;;;;;;5011674;28;20038;-90
2023/12/11 05:35:56;;;;;;;7.30;1.90;;;11.70;72.50;;;;;;4996137;28;20116;-89
2023/12/11 05:38:22;;;;;;;6.45;2.20;;;11.60;72.30;;;;;;5005678;28;20086;-92
2023/12/11 05:40:48;;;;;;;7.43;1.90;;;11.70;72.50;;;;;;5009311;28;20064;-90
2023/12/11 05:43:15;;;;;;;9.05;1.85;;;11.60;72.30;;;;;;5011137;28;20034;-91
2023/12/11 05:45:41;;;;;;;6.63;1.63;;;11.60;72.30;;;;;;5025253;28;20030;-91
2023/12/11 05:48:08;;;;;;;6.03;1.40;;;11.70;72.50;;;;;;5032464;28;20037;-93
2023/12/11 05:50:38;;;;;;;5.75;1.45;;;11.60;72.80;;;;;;5030540;28;20056;-93
2023/12/11 05:53:05;;;;;;;3.30;1.52;;;11.60;72.30;;;;;;5030784;28;20083;-90
2023/12/11 05:55:31;;;;;;;5.82;1.40;;;11.60;72.20;;;;;;5024673;28;20033;-87
2023/12/11 05:57:57;;;;;;;10.32;1.77;;;11.60;72.20;;;;;;5025287;28;20033;-90
2023/12/11 06:00:24;;;;;;;4.78;1.48;;;11.60;72.20;;;;;;4981808;28;20395;-90
2023/12/11 06:02:50;;;;;;;5.45;1.42;;;11.60;72.20;;;;;;5021429;28;20033;-91
2023/12/11 06:05:15;;;;;;;8.25;1.83;;;11.50;72.10;;;;;;4999147;28;20069;-90
2023/12/11 06:07:42;;;;;;;6.43;1.45;;;11.50;72.10;;;;;;5019676;28;20063;-90
2023/12/11 06:10:09;;;;;;;5.00;1.33;;;11.50;72.10;;;;;;5025376;28;20072;-92
2023/12/11 06:12:35;;;;;;;7.40;0.90;;;11.40;71.90;;;;;;5025057;28;20543;-91
2023/12/11 06:15:03;;;;;;;8.35;1.60;;;11.50;72.10;;;;;;5011543;28;20029;-92
2023/12/11 06:17:29;;;;;;;6.85;1.98;;;11.50;72.10;;;;;;5004396;28;20530;-92
2023/12/11 06:19:58;;;;;;;6.95;1.40;;;11.50;72.10;;;;;;5021449;28;20703;-91
2023/12/11 06:22:25;;;;;;;6.82;1.33;;;11.50;72.10;;;;;;5022937;28;20129;-91
2023/12/11 06:24:54;;;;;;;5.93;1.42;;;11.50;72.10;;;;;;5027905;28;20064;-92
2023/12/11 06:27:22;;;;;;;6.88;1.35;;;11.40;71.90;;;;;;5022749;28;20034;-90
2023/12/11 06:29:49;;;;;;;7.32;1.40;;;11.50;72.10;;;;;;5021569;28;20184;-93
2023/12/11 06:32:15;;;;;;;3.33;1.48;;;11.40;71.80;;;;;;5019169;28;20028;-92
2023/12/11 06:34:42;;;;;;;4.80;1.13;;;11.50;72.00;;;;;;5024449;28;20387;-91
2023/12/11 06:37:09;;;;;;;7.18;1.25;;;11.40;71.80;;;;;;5010144;28;20052;-93
2023/12/11 06:39:34;;;;;;;4.28;1.10;;;11.40;71.80;;;;;;5032441;28;20034;-93
2023/12/11 06:42:00;;;;;;;7.63;1.30;;;11.40;72.30;;;;;;5028875;28;20028;-93
2023/12/11 06:44:28;;;;;;;4.97;1.20;;;11.40;71.80;;;;;;5022999;28;20685;-95
2023/12/11 06:46:57;;;;;;;4.45;2.28;;;11.40;71.80;;;;;;5013774;28;20041;-87
2023/12/11 06:49:29;;;;;;;7.05;1.60;;;11.40;71.80;;;;;;5012884;28;20034;-89
2023/12/11 06:51:57;;;;;;;6.63;1.67;;;11.40;71.90;;;;;;5006164;28;20419;-88
2023/12/11 06:54:50;;;;;;;8.35;1.52;;;11.50;72.30;;;;;;5022421;28;20038;-89
2023/12/11 06:57:17;;;;;;;9.60;1.88;;;11.50;72.60;;;;;;5012162;28;20037;-89
2023/12/11 06:59:43;;;;;;;10.43;2.40;;;11.50;72.50;;;;;;5012066;28;20124;-89
2023/12/11 07:02:12;;;;;;;35.15;5.72;;;11.50;72.70;;;;;;5013724;28;20757;-91
2023/12/11 07:04:41;;;;;;;22.27;4.13;;;11.60;73.00;;;;;;5001816;28;20054;-87
2023/12/11 07:07:07;;;;;;;23.15;4.07;;;11.60;73.40;;;;;;5004508;28;20029;-86
2023/12/11 07:09:33;;;;;;;20.40;3.72;;;11.60;73.70;;;;;;5012878;28;20124;-86
2023/12/11 07:12:04;;;;;;;17.05;3.60;;;11.70;74.10;;;;;;5012948;28;20038;-84
2023/12/11 07:14:34;;;;;;;17.77;2.58;;;11.70;74.20;;;;;;5010995;28;20034;-88
2023/12/11 07:17:00;;;;;;;14.88;3.03;;;11.70;74.30;;;;;;5004244;28;20529;-86
2023/12/11 07:19:27;;;;;;;12.77;3.28;;;11.70;74.30;;;;;;5002926;28;20030;-86
2023/12/11 07:21:52;;;;;;;16.50;3.00;;;11.70;74.40;;;;;;4993730;28;20038;-87
2023/12/11 07:24:19;;;;;;;12.32;2.25;;;11.70;74.40;;;;;;4998086;28;20045;-87
2023/12/11 07:26:46;;;;;;;11.30;2.53;;;11.70;74.40;;;;;;4996547;28;20032;-86
2023/12/11 07:29:13;;;;;;;12.30;2.50;;;11.70;74.40;;;;;;4999121;28;20050;-88
2023/12/11 07:31:42;;;;;;;9.30;1.98;;;11.70;74.30;;;;;;5009011;28;20038;-88
2023/12/11 07:34:08;;;;;;;9.00;1.95;;;11.60;74.10;;;;;;5026696;28;20038;-86
2023/12/11 07:36:34;;;;;;;6.95;1.63;;;11.60;74.10;;;;;;5017328;28;20083;-88
2023/12/11 07:39:03;;;;;;;9.07;1.83;;;11.60;74.00;;;;;;5002047;28;20042;-86
2023/12/11 07:41:32;;;;;;;8.57;2.20;;;11.60;74.00;;;;;;5011889;28;20029;-87
2023/12/11 07:43:59;;;;;;;10.82;2.03;;;11.50;73.80;;;;;;5016353;28;20467;-87
2023/12/11 07:46:25;;;;;;;8.85;1.85;;;11.50;73.80;;;;;;4988816;28;20169;-86
2023/12/11 07:48:56;;;;;;;5.70;1.33;;;11.50;73.70;;;;;;5008064;28;20062;-85
2023/12/11 07:51:25;;;;;;;6.63;2.15;;;11.50;73.70;;;;;;4981943;28;20042;-88
2023/12/11 07:53:58;;;;;;;9.35;1.60;;;11.40;73.50;;;;;;4991644;28;20542;-88
2023/12/11 07:56:25;;;;;;;;;;;11.40;73.50;;;;;;5008472;28;20033;-85
2023/12/11 07:58:52;;;;;;;6.38;1.73;;;11.40;73.50;;;;;;4999188;28;19952;-86
2023/12/11 08:01:18;;;;;;;6.47;1.45;;;11.30;73.30;;;;;;5002333;28;20034;-87
2023/12/11 08:03:47;;;;;;;8.75;1.70;;;11.30;73.30;;;;;;5001841;28;20520;-87
2023/12/11 08:06:15;;;;;;;7.18;1.58;;;11.30;73.30;;;;;;5000280;28;20042;-86
2023/12/11 08:08:43;;;;;;;5.75;1.30;;;11.30;73.30;;;;;;4999678;28;20032;-84
2023/12/11 08:11:27;;;;;;;5.93;1.40;;;11.20;73.10;;;;;;5000867;28;20046;-86
2023/12/11 08:13:54;;;;;;;8.13;1.50;;;11.20;73.10;;;;;;5001673;28;20509;-84
2023/12/11 08:16:23;;;;;;;4.15;1.90;;;11.20;73.10;;;;;;4997830;28;20046;-86
2023/12/11 08:18:56;;;;;;;8.68;1.63;;;11.10;72.90;;;;;;4996223;28;20052;-86
2023/12/11 08:21:23;;;;;;;8.98;1.90;;;11.10;72.80;;;;;;4999338;28;20034;-84
2023/12/11 08:23:51;;;;;;;8.80;1.70;;;11.20;73.00;;;;;;5025964;28;20061;-85
2023/12/11 08:26:27;;;;;;;10.20;1.92;;;11.10;72.80;;;;;;5009525;28;20065;-86
2023/12/11 08:28:54;;;;;;;11.15;1.75;;;11.10;72.80;;;;;;5021115;28;20026;-90
2023/12/11 08:31:21;;;;;;;7.18;2.42;;;11.10;72.80;;;;;;5015243;28;20073;-87
2023/12/11 08:33:51;;;;;;;7.75;1.83;;;11.10;72.80;;;;;;5001400;28;20034;-88
2023/12/11 08:36:19;;;;;;;13.50;3.25;;;11.10;72.80;;;;;;5014053;28;20077;-88
2023/12/11 08:38:46;;;;;;;6.78;1.67;;;11.10;72.90;;;;;;4995043;28;20078;-86
2023/12/11 08:41:12;;;;;;;12.10;2.10;;;11.10;73.00;;;;;;5004493;28;20360;-86
2023/12/11 08:43:38;;;;;;;8.30;1.83;;;11.10;73.00;;;;;;5006505;28;20049;-86
2023/12/11 08:46:07;;;;;;;7.55;1.58;;;11.10;72.90;;;;;;5009590;28;20100;-84
2023/12/11 08:48:35;;;;;;;10.60;2.45;;;11.10;72.90;;;;;;5025724;28;20065;-85
2023/12/11 08:51:01;;;;;;;8.65;1.95;;;11.00;72.80;;;;;;4997693;28;20464;-84
2023/12/11 08:53:30;;;;;;;6.90;2.67;;;11.00;72.70;;;;;;5023305;28;20033;-84
2023/12/11 08:55:57;;;;;;;6.88;1.70;;;11.00;72.70;;;;;;4994193;28;20044;-84
2023/12/11 08:58:24;;;;;;;10.35;2.03;;;11.10;72.90;;;;;;5019775;28;20030;-83
2023/12/11 09:00:50;;;;;;;9.00;1.85;;;11.00;72.80;;;;;;4999615;28;20041;-86
2023/12/11 09:03:16;;;;;;;8.93;1.52;;;11.00;72.60;;;;;;5005665;28;20234;-85
2023/12/11 09:05:42;;;;;;;7.13;2.13;;;11.10;72.80;;;;;;5019425;28;20061;-85
2023/12/11 09:08:09;;;;;;;8.32;2.05;;;11.10;72.80;;;;;;5024019;28;20517;-85
2023/12/11 09:10:36;;;;;;;11.73;2.10;;;11.10;72.80;;;;;;4995554;28;20041;-87
2023/12/11 09:13:02;;;;;;;5.60;1.45;;;11.10;72.70;;;;;;5029518;28;20032;-90
2023/12/11 09:15:28;;;;;;;9.20;2.35;;;11.10;72.70;;;;;;5029043;28;20029;-87
2023/12/11 09:17:55;;;;;;;8.40;1.90;;;11.10;72.60;;;;;;5010616;28;20044;-87
2023/12/11 09:20:21;;;;;;;14.65;2.17;;;11.10;72.60;;;;;;5002222;28;20043;-90
2023/12/11 09:22:48;;;;;;;9.27;1.85;;;11.20;72.70;;;;;;5028512;28;20133;-87
2023/12/11 09:25:15;;;;;;;7.47;1.58;;;11.10;72.50;;;;;;5005683;28;20486;-88
2023/12/11 09:27:42;;;;;;;8.80;1.73;;;11.20;72.70;;;;;;5025804;28;20029;-87
2023/12/11 09:30:12;;;;;;;7.78;2.42;;;11.20;72.60;;;;;;5024507;28;20847;-84
2023/12/11 09:32:39;;;;;;;9.15;1.90;;;11.20;72.60;;;;;;5001222;28;20036;-89
2023/12/11 09:35:10;;;;;;;8.50;1.95;;;11.20;72.60;;;;;;5011632;28;20422;-88
2023/12/11 09:37:37;;;;;;;7.18;2.10;;;11.20;72.60;;;;;;5034111;28;20033;-94
2023/12/11 09:40:03;;;;;;;8.38;1.95;;;11.20;72.50;;;;;;5006134;28;20040;-90
2023/12/11 09:42:34;;;;;;;6.97;1.42;;;11.20;72.60;;;;;;5031376;28;20029;-93
2023/12/11 09:45:03;;;;;;;6.60;3.22;;;11.20;72.90;;;;;;5032895;28;20047;-94
2023/12/11 09:47:36;;;;;;;6.25;1.52;;;11.30;73.30;;;;;;5012396;28;20053;-96
2023/12/11 09:50:03;;;;;;;8.55;1.83;;;11.40;73.50;;;;;;5036016;28;20041;-96
2023/12/11 09:52:29;;;;;;;10.20;1.52;;;11.40;73.40;;;;;;4998751;28;20549;-96
2023/12/11 09:54:56;;;;;;;6.03;1.73;;;11.50;73.50;;;;;;5012116;28;20128;-94
2023/12/11 09:57:24;;;;;;;8.75;1.60;;;11.40;73.20;;;;;;5001516;28;20069;-95
2023/12/11 09:59:56;;;;;;;7.40;1.48;;;11.40;73.20;;;;;;5038805;28;20547;-96
2023/12/11 10:02:36;;;;;;;7.90;1.95;;;11.40;73.20;;;;;;5011230;28;20193;-95
2023/12/11 10:05:08;;;;;;;12.25;2.38;;;11.50;73.20;;;;;;5007324;28;20045;-95
2023/12/11 10:07:44;;;;;;;12.18;3.45;;;11.40;73.00;;;;;;5035082;28;20059;-95
2023/12/11 10:10:26;;;;;;;5.13;1.52;;;11.50;73.10;;;;;;5018301;28;20039;-96
2023/12/11 10:13:01;;;;;;;5.35;1.50;;;11.50;73.10;;;;;;5032974;28;20072;-96
2023/12/11 10:15:33;;;;;;;7.35;1.67;;;11.50;73.00;;;;;;5037880;28;20039;-96
2023/12/11 10:18:05;;;;;;;7.70;2.05;;;11.50;73.00;;;;;;5020493;28;20119;-96
2023/12/11 10:20:33;;;;;;;7.57;1.85;;;11.40;72.80;;;;;;5039020;28;20124;-94
2023/12/11 10:23:18;;;;;;;7.43;2.10;;;11.40;72.70;;;;;;5036638;28;20071;-94
2023/12/11 10:25:52;;;;;;;8.77;2.20;;;11.50;72.90;;;;;;5005309;28;20073;-94
2023/12/11 10:28:22;;;;;;;9.80;2.05;;;11.50;72.80;;;;;;5019595;28;20038;-93
2023/12/11 10:31:01;;;;;;;6.72;1.80;;;11.50;72.70;;;;;;5008184;28;20148;-94
2023/12/11 10:33:47;;;;;;;11.85;3.22;;;11.60;72.80;;;;;;5039635;28;20483;-94
2023/12/11 10:36:15;;;;;;;6.03;1.65;;;11.60;72.70;;;;;;5036538;28;20036;-95
2023/12/11 10:38:46;;;;;;;11.52;2.20;;;11.60;72.60;;;;;;5012205;28;20029;-95
2023/12/11 10:41:25;;;;;;;9.27;2.83;;;11.70;72.70;;;;;;5028786;28;20478;-92
2023/12/11 10:43:51;;;;;;;6.07;1.70;;;11.70;72.60;;;;;;5027690;28;20113;-92
2023/12/11 10:46:26;;;;;;;4.68;2.20;;;11.80;72.70;;;;;;5038976;28;20044;-92
2023/12/11 10:48:54;;;;;;;6.20;1.88;;;11.80;72.60;;;;;;5029795;28;20026;-93
2023/12/11 10:51:21;;;;;;;11.15;2.75;;;11.80;72.60;;;;;;5027710;28;20052;-95
2023/12/11 10:53:55;;;;;;;9.13;2.20;;;11.80;72.60;;;;;;5030115;28;20364;-95
2023/12/11 10:56:24;;;;;;;8.57;2.63;;;11.80;72.50;;;;;;5029773;28;20064;-94
2023/12/11 10:58:52;;;;;;;9.85;2.58;;;11.80;72.40;;;;;;5031403;28;20326;-95
2023/12/11 11:01:18;;;;;;;7.75;2.13;;;11.90;72.50;;;;;;4997030;28;20045;-95
2023/12/11 11:03:46;;;;;;;8.80;2.47;;;11.90;72.40;;;;;;5031940;28;20030;-94
2023/12/11 11:06:12;;;;;;;7.43;2.22;;;11.90;72.30;;;;;;5001622;28;20139;-95
2023/12/11 11:08:52;;;;;;;8.35;2.17;;;12.00;72.40;;;;;;5015148;28;20053;-94
2023/12/11 11:11:27;;;;;;;6.82;1.80;;;12.00;72.40;;;;;;5031683;28;20490;-93
2023/12/11 11:14:23;;;;;;;5.78;1.88;;;12.00;72.30;;;;;;5033009;28;20048;-92
2023/12/11 11:16:56;;;;;;;10.13;2.08;;;12.00;72.20;;;;;;5025853;28;20583;-94
2023/12/11 11:19:24;;;;;;;8.98;2.38;;;12.10;72.30;;;;;;5027427;28;20240;-95
2023/12/11 11:22:20;;;;;;;9.45;3.08;;;12.20;72.30;;;;;;5043310;28;20051;-96
2023/12/11 11:24:46;;;;;;;7.60;2.97;;;12.30;72.30;;;;;;5029916;28;20210;-96
2023/12/11 11:27:53;;;;;;;7.40;1.52;;;12.30;72.20;;;;;;5044222;28;20052;-96
2023/12/11 11:30:48;;;;;;;6.13;2.17;;;12.30;72.00;;;;;;4955275;29;20035;-95
2023/12/11 11:33:16;;;;;;;6.32;2.28;;;12.40;72.00;;;;;;4942582;29;20051;-95
2023/12/11 11:35:56;;;;;;;7.10;2.22;;;12.40;71.90;;;;;;4990209;28;20134;-94
2023/12/11 11:38:53;;;;;;;9.80;2.13;;;12.50;72.00;;;;;;4990385;28;20042;-95
2023/12/11 11:41:29;;;;;;;8.88;2.50;;;12.50;71.80;;;;;;5025213;28;20553;-95
2023/12/11 11:44:07;;;;;;;12.40;2.00;;;12.60;71.90;;;;;;5038739;28;20050;-96
2023/12/11 11:46:57;;;;;;;8.38;2.38;;;12.60;71.80;;;;;;5033610;28;20197;-96
2023/12/11 11:49:31;;;;;;;7.70;1.98;;;12.70;71.90;;;;;;5027871;28;20049;-95
2023/12/11 11:51:58;;;;;;;6.25;2.38;;;12.80;71.90;;;;;;4999161;28;20548;-94
2023/12/11 11:54:26;;;;;;;5.45;2.03;;;12.80;71.80;;;;;;5017183;28;20068;-94
2023/12/11 11:56:53;;;;;;;10.82;3.40;;;12.90;71.80;;;;;;5035281;28;20022;-96
2023/12/11 11:59:20;;;;;;;9.68;3.45;;;12.90;71.70;;;;;;5042937;28;20482;-95
2023/12/11 12:01:58;;;;;;;6.22;1.48;;;13.00;71.70;;;;;;5033571;28;20025;-95
2023/12/11 12:04:32;;;;;;;6.57;1.60;;;13.00;71.60;;;;;;5015585;28;20041;-96
2023/12/11 12:07:03;;;;;;;6.40;2.13;;;13.10;71.70;;;;;;5005752;28;20037;-93
2023/12/11 12:09:31;;;;;;;7.43;1.70;;;13.10;71.60;;;;;;5021598;28;20065;-95
2023/12/11 12:11:59;;;;;;;10.88;2.30;;;13.10;71.40;;;;;;5017636;28;20312;-94
2023/12/11 12:14:27;;;;;;;6.85;1.92;;;13.20;71.50;;;;;;5010222;28;20045;-88
2023/12/11 12:16:55;;;;;;;9.77;2.03;;;13.20;71.30;;;;;;5043490;28;20037;-94
2023/12/11 12:19:31;;;;;;;6.07;1.55;;;13.20;71.20;;;;;;5044123;28;20041;-94
2023/12/11 12:21:58;;;;;;;8.90;2.97;;;13.20;71.10;;;;;;5032634;28;20021;-95
2023/12/11 12:24:25;;;;;;;9.55;2.00;;;13.30;71.30;;;;;;5020714;28;20029;-95
2023/12/11 12:27:04;;;;;;;4.43;1.48;;;13.20;71.10;;;;;;5009529;28;20249;-93
2023/12/11 12:29:31;;;;;;;8.57;1.90;;;13.20;71.00;;;;;;5028818;28;20045;-95
2023/12/11 12:31:59;;;;;;;8.45;1.90;;;13.20;71.00;;;;;;4995529;28;20083;-94
2023/12/11 12:34:30;;;;;;;11.88;3.15;;;13.20;71.00;;;;;;5014652;28;20105;-95
2023/12/11 12:37:01;;;;;;;6.32;1.50;;;13.20;71.00;;;;;;5028469;28;20026;-94
2023/12/11 12:39:28;;;;;;;7.13;2.00;;;13.20;71.00;;;;;;5038206;28;20068;-93
2023/12/11 12:41:54;;;;;;;9.52;2.28;;;13.20;71.00;;;;;;4996669;28;20442;-92
2023/12/11 12:44:23;;;;;;;4.75;2.03;;;13.20;70.90;;;;;;5032229;28;20040;-94
2023/12/11 12:46:50;;;;;;;11.73;2.65;;;13.20;70.80;;;;;;5015812;28;20069;-95
2023/12/11 12:49:17;;;;;;;8.68;2.17;;;13.20;70.80;;;;;;5014926;28;20028;-95